createdAt,value
2022-07-29T00:02:14.979Z,58.97
2022-07-29T00:04:41.581Z,59.04
2022-07-29T00:07:08.218Z,59.32
2022-07-29T00:09:42.969Z,59.18
2022-07-29T00:12:25.624Z,59.32
2022-07-29T00:14:56.983Z,59.36
2022-07-29T00:17:24.931Z,59.38
2022-07-29T00:19:51.527Z,59.54
2022-07-29T00:22:18.008Z,59.67
2022-07-29T00:24:44.498Z,59.82
2022-07-29T00:27:10.928Z,60.10
2022-07-29T00:29:37.351Z,60.01
2022-07-29T00:32:04.217Z,60.28
2022-07-29T00:34:49.564Z,60.12
2022-07-29T00:37:16.180Z,60.09
2022-07-29T00:39:42.692Z,60.32
2022-07-29T00:42:10.133Z,60.50
2022-07-29T00:44:43.506Z,61.12
2022-07-29T00:47:11.609Z,60.80
2022-07-29T00:49:40.407Z,60.61
2022-07-29T00:52:08.243Z,61.05
2022-07-29T00:54:35.360Z,60.76
2022-07-29T00:57:07.441Z,60.98
2022-07-29T00:59:34.836Z,61.24
2022-07-29T01:02:03.343Z,61.25
2022-07-29T01:04:30.751Z,61.69
2022-07-29T01:06:57.580Z,61.45
2022-07-29T01:09:35.016Z,61.49
2022-07-29T01:12:12.227Z,61.63
2022-07-29T01:14:39.923Z,61.48
2022-07-29T01:17:16.938Z,61.83
2022-07-29T01:19:52.425Z,61.81
2022-07-29T01:22:44.047Z,61.59
2022-07-29T01:25:29.394Z,61.78
2022-07-29T01:28:20.744Z,61.72
2022-07-29T01:30:52.825Z,62.14
2022-07-29T01:33:44.043Z,61.76
2022-07-29T01:36:25.242Z,62.02
2022-07-29T01:39:00.135Z,62.24
2022-07-29T01:41:31.410Z,62.26
2022-07-29T01:44:02.457Z,62.44
2022-07-29T01:46:35.739Z,62.68
2022-07-29T01:49:15.114Z,62.28
2022-07-29T01:51:50.306Z,62.49
2022-07-29T01:54:26.166Z,62.54
2022-07-29T01:56:56.376Z,62.53
2022-07-29T01:59:24.936Z,62.54
2022-07-29T02:01:54.777Z,62.31
2022-07-29T02:04:29.902Z,62.62
2022-07-29T02:07:02.746Z,62.62
2022-07-29T02:09:31.309Z,62.90
2022-07-29T02:12:00.329Z,63.15
2022-07-29T02:14:30.725Z,62.92
2022-07-29T02:17:00.307Z,63.20
2022-07-29T02:19:28.336Z,62.95
2022-07-29T02:21:57.274Z,63.09
2022-07-29T02:24:25.597Z,62.98
2022-07-29T02:26:54.403Z,62.89
2022-07-29T02:29:23.442Z,63.19
2022-07-29T02:31:51.789Z,62.96
2022-07-29T02:34:20.918Z,63.38
2022-07-29T02:36:49.645Z,63.31
2022-07-29T02:39:16.471Z,63.28
2022-07-29T02:41:47.209Z,63.48
2022-07-29T02:44:20.739Z,63.07
2022-07-29T02:47:12.788Z,63.05
2022-07-29T02:50:16.614Z,63.32
2022-07-29T02:52:53.397Z,63.47
2022-07-29T02:55:46.009Z,63.52
2022-07-29T02:58:37.884Z,63.48
2022-07-29T03:01:12.112Z,63.62
2022-07-29T03:03:39.874Z,63.78
2022-07-29T03:06:08.297Z,64.06
2022-07-29T03:08:35.794Z,63.76
2022-07-29T03:11:03.080Z,63.96
2022-07-29T03:13:30.656Z,63.69
2022-07-29T03:15:58.809Z,63.56
2022-07-29T03:18:26.727Z,63.77
2022-07-29T03:20:53.604Z,64.25
2022-07-29T03:23:22.475Z,63.99
2022-07-29T03:25:49.483Z,64.00
2022-07-29T03:28:16.090Z,64.12
2022-07-29T03:30:44.559Z,64.05
2022-07-29T03:33:13.306Z,64.21
2022-07-29T03:35:40.774Z,64.02
2022-07-29T03:38:07.339Z,64.33
2022-07-29T03:40:59.653Z,64.48
2022-07-29T03:43:31.671Z,64.29
2022-07-29T03:45:59.116Z,64.42
2022-07-29T03:48:27.396Z,64.85
2022-07-29T03:50:54.076Z,64.61
2022-07-29T03:53:21.037Z,64.56
2022-07-29T03:55:54.348Z,64.54
2022-07-29T03:58:21.473Z,65.09
2022-07-29T04:00:48.473Z,64.65
2022-07-29T04:03:16.107Z,64.68
2022-07-29T04:05:42.586Z,64.88
2022-07-29T04:08:09.078Z,64.94
2022-07-29T04:10:35.963Z,64.97
2022-07-29T04:13:02.716Z,64.99
2022-07-29T04:15:30.950Z,65.35
2022-07-29T04:17:58.482Z,65.04
2022-07-29T04:20:24.977Z,65.10
2022-07-29T04:22:51.618Z,65.06
2022-07-29T04:25:18.268Z,65.38
2022-07-29T04:28:01.032Z,65.50
2022-07-29T04:30:28.662Z,65.32
2022-07-29T04:32:55.218Z,65.06
2022-07-29T04:35:21.765Z,65.31
2022-07-29T04:37:48.330Z,65.55
2022-07-29T04:40:15.142Z,65.39
2022-07-29T04:42:46.471Z,65.82
2022-07-29T04:45:14.196Z,66.02
2022-07-29T04:47:40.966Z,65.59
2022-07-29T04:50:09.609Z,65.82
2022-07-29T04:52:36.290Z,65.72
2022-07-29T04:55:04.149Z,65.63
2022-07-29T04:57:30.790Z,65.82
2022-07-29T04:59:57.358Z,65.71
2022-07-29T05:02:23.937Z,65.71
2022-07-29T05:04:50.431Z,65.77
2022-07-29T05:07:16.973Z,65.58
2022-07-29T05:09:43.436Z,65.69
2022-07-29T05:12:10.758Z,65.86
2022-07-29T05:14:37.244Z,65.80
2022-07-29T05:17:03.846Z,66.19
2022-07-29T05:19:30.359Z,66.13
2022-07-29T05:21:56.821Z,66.22
2022-07-29T05:24:23.280Z,66.19
2022-07-29T05:26:49.737Z,66.17
2022-07-29T05:29:44.462Z,66.14
2022-07-29T05:32:03.322Z,65.85
2022-07-29T05:34:29.843Z,65.75
2022-07-29T05:36:56.491Z,65.69
2022-07-29T05:39:47.616Z,65.51
2022-07-29T05:42:11.204Z,65.47
2022-07-29T05:44:39.094Z,65.60
2022-07-29T05:47:06.148Z,65.55
2022-07-29T05:49:32.883Z,65.47
2022-07-29T05:51:59.688Z,65.22
2022-07-29T05:54:26.685Z,65.42
2022-07-29T05:56:53.195Z,65.29
2022-07-29T05:59:19.657Z,65.10
2022-07-29T06:01:46.165Z,64.60
2022-07-29T06:04:12.871Z,65.21
2022-07-29T06:06:39.635Z,64.83
2022-07-29T06:09:12.653Z,64.86
2022-07-29T06:11:39.808Z,62.80
2022-07-29T06:14:06.248Z,63.10
2022-07-29T06:16:32.837Z,63.17
2022-07-29T06:18:59.324Z,62.79
2022-07-29T06:21:25.822Z,61.96
2022-07-29T06:23:52.522Z,62.52
2022-07-29T06:26:18.948Z,62.33
2022-07-29T06:28:57.408Z,62.58
2022-07-29T06:31:24.059Z,62.69
2022-07-29T06:33:50.613Z,62.69
2022-07-29T06:36:17.077Z,62.91
2022-07-29T06:38:49.537Z,63.30
2022-07-29T06:41:18.336Z,63.32
2022-07-29T06:43:51.796Z,63.31
2022-07-29T06:46:23.023Z,63.85
2022-07-29T06:48:50.155Z,63.23
2022-07-29T06:51:22.683Z,62.97
2022-07-29T06:53:58.368Z,62.60
2022-07-29T06:56:28.771Z,62.78
2022-07-29T06:58:55.331Z,62.76
2022-07-29T07:01:21.953Z,61.99
2022-07-29T07:03:48.458Z,61.91
2022-07-29T07:06:15.301Z,61.10
2022-07-29T07:08:41.865Z,60.86
2022-07-29T07:11:08.429Z,61.46
2022-07-29T07:13:36.736Z,62.10
2022-07-29T07:16:03.922Z,61.40
2022-07-29T07:18:30.453Z,60.18
2022-07-29T07:20:57.790Z,61.07
2022-07-29T07:23:24.426Z,58.90
2022-07-29T07:25:50.928Z,59.71
2022-07-29T07:28:17.607Z,58.90
2022-07-29T07:30:44.516Z,60.49
2022-07-29T07:33:11.725Z,58.14
2022-07-29T07:35:38.237Z,57.55
2022-07-29T07:38:04.713Z,57.28
2022-07-29T07:40:31.333Z,57.54
2022-07-29T07:42:57.860Z,57.20
2022-07-29T07:45:24.665Z,58.15
2022-07-29T07:47:51.447Z,56.47
2022-07-29T07:50:20.704Z,57.05
2022-07-29T07:52:52.825Z,57.27
2022-07-29T07:55:20.313Z,57.53
2022-07-29T07:57:47.533Z,59.42
2022-07-29T08:00:16.449Z,55.27
2022-07-29T08:02:46.610Z,56.94
2022-07-29T08:05:17.686Z,55.54
2022-07-29T08:07:46.811Z,55.19
2022-07-29T08:10:14.893Z,56.72
2022-07-29T08:12:42.615Z,55.65
2022-07-29T08:15:09.843Z,56.93
2022-07-29T08:17:36.347Z,56.78
2022-07-29T08:20:05.089Z,55.75
2022-07-29T08:22:31.675Z,55.51
2022-07-29T08:24:58.115Z,56.43
2022-07-29T08:27:43.002Z,57.42
2022-07-29T08:30:11.345Z,57.43
2022-07-29T08:32:53.173Z,55.31
2022-07-29T08:35:24.487Z,55.41
2022-07-29T08:37:51.535Z,53.79
2022-07-29T08:40:18.010Z,54.31
2022-07-29T08:42:44.467Z,55.19
2022-07-29T08:45:11.295Z,53.75
2022-07-29T08:47:40.758Z,53.20
2022-07-29T08:50:11.682Z,52.95
2022-07-29T08:52:40.797Z,53.78
2022-07-29T08:55:08.747Z,54.06
2022-07-29T08:57:37.101Z,54.11
2022-07-29T09:00:11.449Z,55.33
2022-07-29T09:02:46.908Z,53.25
2022-07-29T09:05:14.786Z,52.82
2022-07-29T09:07:44.164Z,51.65
2022-07-29T09:10:11.178Z,52.49
2022-07-29T09:12:38.264Z,52.22
2022-07-29T09:15:05.432Z,52.81
2022-07-29T09:17:42.884Z,51.96
2022-07-29T09:20:11.843Z,52.62
2022-07-29T09:22:41.817Z,50.86
2022-07-29T09:25:08.872Z,52.99
2022-07-29T09:27:35.618Z,50.29
2022-07-29T09:30:13.360Z,50.75
2022-07-29T09:32:55.953Z,51.99
2022-07-29T09:35:27.118Z,51.32
2022-07-29T09:37:54.430Z,47.81
2022-07-29T09:40:26.995Z,50.13
2022-07-29T09:42:57.859Z,46.96
2022-07-29T09:45:34.761Z,47.03
2022-07-29T09:48:14.734Z,47.88
2022-07-29T09:50:42.404Z,47.66
2022-07-29T09:53:12.220Z,47.53
2022-07-29T09:55:52.497Z,46.75
2022-07-29T09:58:20.971Z,48.61
2022-07-29T10:00:48.607Z,47.82
2022-07-29T10:03:16.642Z,48.25
2022-07-29T10:05:44.406Z,48.54
2022-07-29T10:08:13.268Z,49.95
2022-07-29T10:10:42.582Z,49.25
2022-07-29T10:13:15.376Z,49.27
2022-07-29T10:15:46.082Z,48.92
2022-07-29T10:18:14.874Z,48.12
2022-07-29T10:20:42.214Z,48.82
2022-07-29T10:23:10.086Z,48.48
2022-07-29T10:25:36.611Z,49.98
2022-07-29T10:28:03.747Z,49.32
2022-07-29T10:30:30.515Z,49.47
2022-07-29T10:33:15.715Z,49.13
2022-07-29T10:36:08.483Z,48.41
2022-07-29T10:38:45.986Z,47.33
2022-07-29T10:41:44.194Z,46.83
2022-07-29T10:44:22.853Z,46.49
2022-07-29T10:46:51.673Z,49.58
2022-07-29T10:49:30.616Z,48.33
2022-07-29T10:52:09.057Z,47.21
2022-07-29T10:54:48.487Z,46.80
2022-07-29T10:57:20.765Z,46.36
2022-07-29T11:00:11.687Z,47.07
2022-07-29T11:02:43.522Z,48.89
2022-07-29T11:05:11.590Z,46.80
2022-07-29T11:07:45.763Z,47.80
2022-07-29T11:10:12.704Z,46.64
2022-07-29T11:12:40.324Z,46.76
2022-07-29T11:15:18.360Z,48.00
2022-07-29T11:17:59.699Z,47.23
2022-07-29T11:20:49.719Z,47.51
2022-07-29T11:26:18.915Z,46.54
2022-07-29T11:28:51.369Z,45.69
2022-07-29T11:31:44.549Z,45.75
2022-07-29T11:34:36.446Z,45.99
2022-07-29T11:37:14.944Z,45.14
2022-07-29T11:39:54.344Z,43.77
2022-07-29T11:42:32.273Z,44.43
2022-07-29T11:45:04.361Z,44.20
2022-07-29T11:47:48.946Z,44.39
2022-07-29T11:50:28.373Z,43.17
2022-07-29T11:52:54.885Z,43.24
2022-07-29T11:55:24.166Z,42.98
2022-07-29T12:00:48.990Z,43.14
2022-07-29T12:03:33.327Z,43.56
2022-07-29T12:06:02.341Z,42.86
2022-07-29T12:08:28.969Z,42.82
2022-07-29T12:10:55.478Z,43.26
2022-07-29T12:13:22.787Z,42.14
2022-07-29T12:16:04.073Z,43.38
2022-07-29T12:18:30.633Z,43.07
2022-07-29T12:20:59.233Z,42.70
2022-07-29T12:23:34.923Z,42.74
2022-07-29T12:26:05.232Z,42.11
2022-07-29T12:28:39.261Z,43.34
2022-07-29T12:31:06.224Z,42.56
2022-07-29T12:33:35.854Z,42.21
2022-07-29T12:36:07.286Z,41.68
2022-07-29T12:38:40.909Z,44.49
2022-07-29T12:41:07.688Z,42.60
2022-07-29T12:43:34.263Z,42.11
2022-07-29T12:46:15.896Z,42.98
2022-07-29T12:48:44.042Z,42.95
2022-07-29T12:51:12.767Z,42.30
2022-07-29T12:53:39.736Z,42.03
2022-07-29T12:56:26.478Z,42.29
2022-07-29T12:58:53.919Z,42.05
2022-07-29T13:01:21.740Z,41.35
2022-07-29T13:03:57.340Z,41.62
2022-07-29T13:06:36.645Z,41.38
2022-07-29T13:09:14.330Z,41.73
2022-07-29T13:11:47.928Z,41.36
2022-07-29T13:14:32.571Z,41.07
2022-07-29T13:17:10.583Z,41.68
2022-07-29T13:19:42.966Z,41.49
2022-07-29T13:22:17.979Z,40.50
2022-07-29T13:25:04.630Z,41.43
2022-07-29T13:27:33.328Z,40.68
2022-07-29T13:30:02.182Z,40.86
2022-07-29T13:32:31.585Z,40.73
2022-07-29T13:35:01.697Z,41.03
2022-07-29T13:37:34.919Z,41.67
2022-07-29T13:40:03.886Z,40.89
2022-07-29T13:42:30.507Z,40.87
2022-07-29T13:44:57.033Z,42.23
2022-07-29T13:47:32.834Z,41.17
2022-07-29T13:50:01.940Z,41.55
2022-07-29T13:52:29.474Z,41.46
2022-07-29T13:54:56.960Z,41.26
2022-07-29T13:57:23.511Z,40.81
2022-07-29T13:59:54.191Z,40.58
2022-07-29T14:02:21.441Z,40.48
2022-07-29T14:04:52.081Z,40.54
2022-07-29T14:07:18.614Z,41.81
2022-07-29T14:09:45.120Z,40.80
2022-07-29T14:12:12.860Z,40.76
2022-07-29T14:14:39.590Z,40.67
2022-07-29T14:17:07.525Z,40.97
2022-07-29T14:19:36.673Z,40.85
2022-07-29T14:22:05.594Z,40.75
2022-07-29T14:24:33.742Z,40.13
2022-07-29T14:27:04.214Z,40.33
2022-07-29T14:29:37.483Z,40.87
2022-07-29T14:32:06.898Z,39.49
2022-07-29T14:34:34.381Z,39.97
2022-07-29T14:37:00.812Z,39.64
2022-07-29T14:39:31.823Z,40.38
2022-07-29T14:41:59.134Z,40.62
2022-07-29T14:44:31.824Z,41.86
2022-07-29T14:47:07.755Z,40.68
2022-07-29T14:49:34.681Z,40.65
2022-07-29T14:52:01.414Z,39.97
2022-07-29T14:54:28.158Z,39.10
2022-07-29T14:56:57.822Z,39.01
2022-07-29T14:59:24.570Z,38.90
2022-07-29T15:01:51.133Z,38.15
2022-07-29T15:04:17.659Z,37.64
2022-07-29T15:06:44.752Z,37.53
2022-07-29T15:09:11.518Z,37.19
2022-07-29T15:11:38.613Z,37.86
2022-07-29T15:14:05.347Z,37.03
2022-07-29T15:16:32.049Z,37.18
2022-07-29T15:19:01.061Z,37.19
2022-07-29T15:21:28.020Z,37.00
2022-07-29T15:23:54.571Z,36.47
2022-07-29T15:26:21.255Z,36.90
2022-07-29T15:28:47.881Z,36.77
2022-07-29T15:31:14.493Z,37.00
2022-07-29T15:33:41.286Z,37.09
2022-07-29T15:36:07.791Z,36.43
2022-07-29T15:38:34.241Z,37.03
2022-07-29T15:41:00.768Z,36.41
2022-07-29T15:43:27.305Z,36.29
2022-07-29T15:46:12.642Z,36.01
2022-07-29T15:48:40.223Z,34.60
2022-07-29T15:51:06.883Z,35.23
2022-07-29T15:53:33.862Z,36.31
2022-07-29T15:56:02.139Z,35.79
2022-07-29T15:58:28.644Z,36.88
2022-07-29T16:00:55.297Z,35.88
2022-07-29T16:03:22.907Z,36.62
2022-07-29T16:05:49.350Z,35.47
2022-07-29T16:08:15.786Z,35.36
2022-07-29T16:10:42.266Z,35.34
2022-07-29T16:13:08.750Z,35.17
2022-07-29T16:15:35.363Z,34.90
2022-07-29T16:18:01.825Z,34.39
2022-07-29T16:20:30.194Z,34.26
2022-07-29T16:22:56.638Z,34.48
2022-07-29T16:25:38.401Z,33.83
2022-07-29T16:28:10.502Z,33.38
2022-07-29T16:30:37.547Z,33.08
2022-07-29T16:33:08.051Z,34.26
2022-07-29T16:35:39.460Z,33.60
2022-07-29T16:38:06.673Z,33.35
2022-07-29T16:40:33.259Z,33.39
2022-07-29T16:42:59.745Z,32.98
2022-07-29T16:45:26.477Z,34.03
2022-07-29T16:48:00.984Z,32.79
2022-07-29T16:50:28.850Z,32.73
2022-07-29T16:52:56.196Z,32.66
2022-07-29T16:55:23.027Z,31.89
2022-07-29T16:57:52.642Z,32.64
2022-07-29T17:00:19.866Z,32.67
2022-07-29T17:02:46.439Z,32.40
2022-07-29T17:05:13.169Z,31.70
2022-07-29T17:07:40.381Z,31.42
2022-07-29T17:10:10.406Z,32.13
2022-07-29T17:12:38.686Z,31.35
2022-07-29T17:15:06.319Z,32.06
2022-07-29T17:17:39.264Z,32.78
2022-07-29T17:20:19.200Z,32.40
2022-07-29T17:22:45.701Z,31.98
2022-07-29T17:25:20.446Z,31.72
2022-07-29T17:27:49.477Z,31.14
2022-07-29T17:30:16.066Z,31.71
2022-07-29T17:32:42.585Z,31.45
2022-07-29T17:35:28.235Z,31.80
2022-07-29T17:37:55.011Z,31.85
2022-07-29T17:40:21.879Z,31.83
2022-07-29T17:42:48.345Z,31.64
2022-07-29T17:45:14.848Z,31.63
2022-07-29T17:47:41.828Z,31.62
2022-07-29T17:50:08.527Z,31.32
2022-07-29T17:52:35.023Z,31.90
2022-07-29T17:55:03.151Z,32.50
2022-07-29T17:57:29.633Z,32.45
2022-07-29T17:59:56.111Z,33.96
2022-07-29T18:02:22.689Z,34.88
2022-07-29T18:04:53.066Z,35.42
2022-07-29T18:07:19.519Z,34.95
2022-07-29T18:09:46.028Z,35.78
2022-07-29T18:12:12.477Z,36.47
2022-07-29T18:14:39.063Z,36.42
2022-07-29T18:17:05.615Z,37.16
2022-07-29T18:19:32.097Z,38.22
2022-07-29T18:22:04.719Z,38.54
2022-07-29T18:24:32.036Z,39.49
2022-07-29T18:26:58.713Z,39.53
2022-07-29T18:29:25.431Z,40.22
2022-07-29T18:31:51.887Z,40.32
2022-07-29T18:34:18.384Z,41.13
2022-07-29T18:36:45.905Z,41.31
2022-07-29T18:39:20.245Z,41.82
2022-07-29T18:41:50.580Z,42.98
2022-07-29T18:44:19.313Z,43.15
2022-07-29T18:46:48.746Z,43.51
2022-07-29T18:49:15.389Z,44.05
2022-07-29T18:51:41.899Z,44.36
2022-07-29T18:54:10.059Z,44.86
2022-07-29T18:56:36.881Z,45.69
2022-07-29T18:59:03.456Z,45.40
2022-07-29T19:01:31.477Z,46.20
2022-07-29T19:03:58.863Z,46.53
2022-07-29T19:06:26.025Z,45.73
2022-07-29T19:08:53.266Z,46.25
2022-07-29T19:11:19.777Z,46.24
2022-07-29T19:13:46.268Z,46.49
2022-07-29T19:16:14.081Z,46.20
2022-07-29T19:18:41.628Z,46.83
2022-07-29T19:21:08.103Z,46.90
2022-07-29T19:24:00.195Z,47.57
2022-07-29T19:26:21.204Z,47.97
2022-07-29T19:28:48.905Z,47.66
2022-07-29T19:31:15.962Z,48.11
2022-07-29T19:33:42.686Z,48.56
2022-07-29T19:36:09.271Z,49.05
2022-07-29T19:38:35.808Z,49.58
2022-07-29T19:41:02.334Z,50.09
2022-07-29T19:43:51.442Z,50.64
2022-07-29T19:46:15.348Z,50.81
2022-07-29T19:48:41.931Z,51.29
2022-07-29T19:51:08.446Z,51.75
2022-07-29T19:53:34.945Z,52.31
2022-07-29T19:56:01.389Z,52.53
2022-07-29T19:58:27.880Z,53.01
2022-07-29T20:00:54.714Z,53.26
2022-07-29T20:03:21.196Z,53.78
2022-07-29T20:05:51.013Z,54.01
2022-07-29T20:08:17.971Z,54.51
2022-07-29T20:10:45.837Z,55.08
2022-07-29T20:13:12.938Z,55.40
2022-07-29T20:15:39.580Z,55.54
2022-07-29T20:18:06.485Z,55.97
2022-07-29T20:20:32.988Z,56.73
2022-07-29T20:23:01.065Z,57.19
2022-07-29T20:25:28.139Z,57.45
2022-07-29T20:27:54.645Z,57.53
2022-07-29T20:30:22.229Z,57.74
2022-07-29T20:32:49.766Z,58.51
2022-07-29T20:35:16.449Z,58.65
2022-07-29T20:37:52.163Z,58.89
2022-07-29T20:40:23.630Z,59.51
2022-07-29T20:42:50.062Z,60.13
2022-07-29T20:45:16.652Z,60.24
2022-07-29T20:47:43.106Z,60.47
2022-07-29T20:50:10.148Z,60.44
2022-07-29T20:52:36.694Z,60.77
2022-07-29T20:55:03.505Z,60.89
2022-07-29T20:57:39.066Z,60.54
2022-07-29T21:00:07.396Z,60.94
2022-07-29T21:02:33.937Z,61.39
2022-07-29T21:05:00.880Z,61.76
2022-07-29T21:07:27.607Z,62.07
2022-07-29T21:09:54.048Z,61.62
2022-07-29T21:12:20.502Z,61.90
2022-07-29T21:14:47.949Z,63.31
2022-07-29T21:17:15.779Z,63.45
2022-07-29T21:19:43.114Z,63.87
2022-07-29T21:22:09.916Z,64.21
2022-07-29T21:24:36.351Z,64.95
2022-07-29T21:27:21.975Z,65.12
2022-07-29T21:29:48.818Z,66.00
2022-07-29T21:32:27.623Z,66.22
2022-07-29T21:34:57.220Z,66.74
2022-07-29T21:37:23.865Z,66.69
2022-07-29T21:39:50.335Z,66.93
2022-07-29T21:42:16.934Z,67.33
2022-07-29T21:44:43.422Z,66.96
2022-07-29T21:47:10.645Z,67.27
2022-07-29T21:49:37.261Z,67.81
2022-07-29T21:52:04.301Z,67.68
2022-07-29T21:54:31.577Z,67.79
2022-07-29T21:56:58.334Z,68.02
2022-07-29T21:59:24.855Z,67.83
2022-07-29T22:01:51.395Z,68.19
2022-07-29T22:04:18.048Z,68.48
2022-07-29T22:06:44.557Z,68.18
2022-07-29T22:09:10.992Z,68.77
2022-07-29T22:11:37.460Z,69.05
2022-07-29T22:14:05.465Z,68.99
2022-07-29T22:16:31.986Z,69.34
2022-07-29T22:18:58.668Z,69.33
2022-07-29T22:21:25.184Z,69.64
2022-07-29T22:23:51.648Z,69.43
2022-07-29T22:26:18.159Z,69.61
2022-07-29T22:28:44.673Z,69.99
2022-07-29T22:31:11.175Z,70.29
2022-07-29T22:33:37.817Z,70.05
2022-07-29T22:36:04.705Z,69.75
2022-07-29T22:38:31.170Z,70.08
2022-07-29T22:40:58.774Z,70.43
2022-07-29T22:43:27.200Z,70.62
2022-07-29T22:45:53.738Z,71.08
2022-07-29T22:48:20.247Z,70.77
2022-07-29T22:50:46.732Z,71.26
2022-07-29T22:53:13.262Z,71.25
2022-07-29T22:55:39.842Z,71.32
2022-07-29T22:58:06.791Z,71.22
2022-07-29T23:00:33.361Z,71.58
2022-07-29T23:02:59.841Z,71.60
2022-07-29T23:05:26.400Z,72.00
2022-07-29T23:07:52.830Z,72.61
2022-07-29T23:10:19.261Z,72.85
2022-07-29T23:12:45.692Z,72.79
2022-07-29T23:15:12.454Z,72.85
2022-07-29T23:17:38.929Z,73.17
2022-07-29T23:20:09.859Z,73.01
2022-07-29T23:22:37.028Z,73.66
2022-07-29T23:25:05.013Z,73.45
2022-07-29T23:27:32.060Z,73.54
2022-07-29T23:29:58.527Z,73.70
2022-07-29T23:32:25.037Z,74.04
2022-07-29T23:34:51.470Z,74.16
2022-07-29T23:37:17.905Z,73.94
2022-07-29T23:39:44.402Z,73.89
2022-07-29T23:42:10.864Z,74.26
2022-07-29T23:44:37.325Z,74.51
2022-07-29T23:47:04.164Z,74.28
2022-07-29T23:49:30.939Z,73.95
2022-07-29T23:51:57.466Z,73.68
2022-07-29T23:54:23.939Z,74.40
2022-07-29T23:56:50.435Z,74.43
2022-07-29T23:59:16.916Z,74.08
